Time;durP1;ratioP1;P1;durP2;ratioP2;P2;SDS_P1;SDS_P2;PMS_P1;PMS_P2;Temp;Humidity;BMP_temperature;BMP_pressure;BME280_temperature;BME280_humidity;BME280_pressure;Samples;Min_cycle;Max_cycle;Signal;HPM_P1;HPM_P2
2023/09/19 00:01:48;;;;;;;9.98;2.40;;;;;;;;;;5030901;28;20053;-89
2023/09/19 00:04:14;;;;;;;9.68;2.00;;;;;;;;;;5021784;28;20127;-89
2023/09/19 00:06:41;;;;;;;10.65;2.28;;;;;;;;;;5036714;28;20053;-89
2023/09/19 00:09:10;;;;;;;8.55;2.10;;;;;;;;;;5007547;28;20132;-89
2023/09/19 00:11:37;;;;;;;9.30;2.10;;;;;;;;;;5031562;28;20038;-89
2023/09/19 00:14:04;;;;;;;11.90;2.38;;;;;;;;;;5018676;28;20049;-89
2023/09/19 00:16:32;;;;;;;11.98;2.60;;;;;;;;;;5017276;28;20049;-89
2023/09/19 00:18:59;;;;;;;8.13;2.07;;;;;;;;;;5023581;28;20056;-89
2023/09/19 00:21:25;;;;;;;12.52;2.15;;;;;;;;;;5033278;28;20511;-89
2023/09/19 00:23:51;;;;;;;13.65;2.58;;;;;;;;;;5001948;28;20484;-92
2023/09/19 00:26:18;;;;;;;11.32;2.65;;;;;;;;;;5021721;28;20045;-89
2023/09/19 00:28:44;;;;;;;8.95;2.28;;;;;;;;;;5020045;28;20048;-90
2023/09/19 00:31:10;;;;;;;9.45;2.00;;;;;;;;;;5012603;28;20049;-89
2023/09/19 00:33:36;;;;;;;8.20;1.90;;;;;;;;;;5005017;28;20056;-90
2023/09/19 00:36:05;;;;;;;9.45;2.38;;;;;;;;;;5000000;28;20045;-90
2023/09/19 00:38:31;;;;;;;13.32;2.95;;;;;;;;;;5001820;28;20053;-88
2023/09/19 00:40:59;;;;;;;8.32;2.05;;;;;;;;;;5006359;28;20172;-88
2023/09/19 00:43:27;;;;;;;11.57;2.38;;;;;;;;;;5005405;28;20046;-90
2023/09/19 00:45:54;;;;;;;9.40;2.28;;;;;;;;;;5021602;28;20569;-90
2023/09/19 00:48:21;;;;;;;15.60;2.50;;;;;;;;;;5007345;28;20455;-89
2023/09/19 00:50:47;;;;;;;13.13;2.38;;;;;;;;;;5021135;28;20133;-88
2023/09/19 00:53:15;;;;;;;10.75;2.22;;;;;;;;;;5001524;28;20041;-90
2023/09/19 00:55:42;;;;;;;14.68;2.28;;;;;;;;;;5008041;28;20033;-89
2023/09/19 00:58:10;;;;;;;13.00;2.58;;;;;;;;;;5007047;28;20121;-88
2023/09/19 01:00:36;;;;;;;15.85;2.42;;;;;;;;;;5003005;28;20052;-89
2023/09/19 01:03:03;;;;;;;13.60;2.60;;;;;;;;;;5006817;28;20041;-89
2023/09/19 01:05:29;;;;;;;14.45;2.63;;;;;;;;;;5007483;28;20052;-88
2023/09/19 01:07:56;;;;;;;12.65;2.60;;;;;;;;;;5003490;28;20069;-90
2023/09/19 01:10:22;;;;;;;12.48;2.50;;;;;;;;;;5005484;28;20046;-90
2023/09/19 01:13:09;;;;;;;12.27;2.72;;;;;;;;;;5005174;28;20046;-89
2023/09/19 01:15:54;;;;;;;13.48;2.30;;;;;;;;;;5009923;28;20077;-90
2023/09/19 01:18:20;;;;;;;15.05;2.55;;;;;;;;;;5002014;28;20051;-90
2023/09/19 01:20:47;;;;;;;11.82;2.45;;;;;;;;;;5008901;28;20132;-89
2023/09/19 01:23:24;;;;;;;14.32;2.50;;;;;;;;;;4988261;28;20107;-91
2023/09/19 01:26:08;;;;;;;10.23;2.40;;;;;;;;;;5007808;28;20045;-89
2023/09/19 01:28:57;;;;;;;11.80;2.53;;;;;;;;;;4992929;28;20041;-90
2023/09/19 01:31:23;;;;;;;15.68;2.65;;;;;;;;;;5000936;28;20136;-90
2023/09/19 01:33:59;;;;;;;12.85;2.65;;;;;;;;;;4995181;28;20037;-91
2023/09/19 01:36:36;;;;;;;14.48;2.53;;;;;;;;;;4995335;28;20379;-90
2023/09/19 01:39:13;;;;;;;12.88;2.85;;;;;;;;;;5012861;28;20547;-90
2023/09/19 01:41:39;;;;;;;12.30;2.55;;;;;;;;;;5010257;28;20068;-90
2023/09/19 01:44:07;;;;;;;16.67;3.10;;;;;;;;;;5024142;28;20044;-91
2023/09/19 01:46:40;;;;;;;16.40;3.15;;;;;;;;;;5022469;28;20044;-91
2023/09/19 01:49:06;;;;;;;13.82;2.60;;;;;;;;;;5016097;28;20046;-90
2023/09/19 01:51:41;;;;;;;12.70;2.90;;;;;;;;;;5028112;28;20120;-89
2023/09/19 01:54:12;;;;;;;13.38;3.05;;;;;;;;;;5010314;28;20981;-90
2023/09/19 01:56:46;;;;;;;16.10;2.95;;;;;;;;;;5010307;28;20068;-90
2023/09/19 01:59:18;;;;;;;11.38;2.55;;;;;;;;;;5008372;28;20156;-90
2023/09/19 02:01:45;;;;;;;14.73;3.33;;;;;;;;;;5017219;28;20037;-90
2023/09/19 02:04:11;;;;;;;14.18;2.75;;;;;;;;;;5018126;28;20040;-90
2023/09/19 02:06:42;;;;;;;8.55;2.90;;;;;;;;;;5035945;28;20080;-89
2023/09/19 02:09:09;;;;;;;15.25;3.13;;;;;;;;;;5003101;28;20053;-88
2023/09/19 02:11:36;;;;;;;12.80;2.92;;;;;;;;;;5006484;28;20049;-89
2023/09/19 02:14:02;;;;;;;11.10;2.70;;;;;;;;;;5010094;28;20033;-88
2023/09/19 02:16:28;;;;;;;13.27;3.13;;;;;;;;;;5013683;28;20080;-90
2023/09/19 02:18:54;;;;;;;16.70;3.00;;;;;;;;;;5010737;28;20052;-89
2023/09/19 02:21:21;;;;;;;9.75;2.75;;;;;;;;;;5027953;28;20048;-89
2023/09/19 02:23:48;;;;;;;17.15;2.47;;;;;;;;;;5031796;28;20052;-90
2023/09/19 02:26:14;;;;;;;13.98;2.55;;;;;;;;;;5015790;28;20037;-89
2023/09/19 02:28:40;;;;;;;11.50;2.47;;;;;;;;;;5024645;28;20045;-89
2023/09/19 02:31:06;;;;;;;11.55;2.58;;;;;;;;;;5000018;28;20055;-90
2023/09/19 02:33:32;;;;;;;12.30;2.75;;;;;;;;;;5024020;28;20037;-89
2023/09/19 02:35:59;;;;;;;16.75;3.00;;;;;;;;;;5025582;28;20057;-90
2023/09/19 02:38:28;;;;;;;13.35;3.13;;;;;;;;;;5027426;28;20060;-89
2023/09/19 02:40:55;;;;;;;17.08;3.05;;;;;;;;;;5017934;28;20458;-89
2023/09/19 02:43:21;;;;;;;11.95;2.97;;;;;;;;;;5010098;28;20060;-89
2023/09/19 02:45:49;;;;;;;22.60;3.50;;;;;;;;;;5014341;28;20060;-90
2023/09/19 02:48:15;;;;;;;11.88;2.83;;;;;;;;;;5020511;28;20042;-89
2023/09/19 02:50:41;;;;;;;13.23;3.05;;;;;;;;;;5010350;28;20049;-89
2023/09/19 02:53:08;;;;;;;11.48;3.72;;;;;;;;;;5008373;28;20207;-88
2023/09/19 02:55:34;;;;;;;12.18;2.80;;;;;;;;;;4997552;28;20045;-88
2023/09/19 02:58:01;;;;;;;15.88;3.10;;;;;;;;;;5030109;28;20501;-90
2023/09/19 03:00:27;;;;;;;14.10;2.85;;;;;;;;;;5018695;28;20383;-90
2023/09/19 03:02:55;;;;;;;17.65;3.30;;;;;;;;;;5014998;28;20391;-90
2023/09/19 03:05:21;;;;;;;16.92;3.05;;;;;;;;;;5030166;28;20573;-91
2023/09/19 03:07:50;;;;;;;17.67;3.28;;;;;;;;;;5013425;28;20404;-90
2023/09/19 03:10:20;;;;;;;12.60;3.10;;;;;;;;;;5006851;28;20045;-90
2023/09/19 03:12:47;;;;;;;17.30;3.20;;;;;;;;;;5027931;28;20041;-89
2023/09/19 03:15:15;;;;;;;14.65;3.28;;;;;;;;;;5028691;28;20449;-89
2023/09/19 03:17:43;;;;;;;13.77;3.20;;;;;;;;;;5053558;28;20045;-90
2023/09/19 03:20:12;;;;;;;15.10;2.95;;;;;;;;;;5028779;28;20088;-91
2023/09/19 03:22:38;;;;;;;;;;;;;;;;;;5028440;28;20053;-92
2023/09/19 03:25:07;;;;;;;10.75;2.92;;;;;;;;;;5009468;28;20299;-89
2023/09/19 03:27:33;;;;;;;12.00;2.63;;;;;;;;;;5016161;28;20651;-89
2023/09/19 03:29:59;;;;;;;15.27;3.03;;;;;;;;;;5016221;28;20183;-89
2023/09/19 03:32:25;;;;;;;18.05;3.20;;;;;;;;;;5011580;28;20124;-90
2023/09/19 03:34:51;;;;;;;13.68;2.80;;;;;;;;;;5006388;28;20049;-89
2023/09/19 03:37:17;;;;;;;11.95;2.80;;;;;;;;;;5010777;28;20111;-89
2023/09/19 03:39:44;;;;;;;14.38;2.90;;;;;;;;;;5005326;28;20044;-89
2023/09/19 03:42:10;;;;;;;10.93;2.67;;;;;;;;;;5027615;28;20132;-90
2023/09/19 03:44:36;;;;;;;15.45;3.13;;;;;;;;;;5020443;28;20044;-89
2023/09/19 03:47:04;;;;;;;15.50;3.08;;;;;;;;;;5003435;28;20041;-90
2023/09/19 03:49:30;;;;;;;13.35;2.88;;;;;;;;;;5016208;28;20049;-90
2023/09/19 03:51:56;;;;;;;10.75;2.90;;;;;;;;;;5025140;28;20056;-89
2023/09/19 03:54:22;;;;;;;11.00;2.80;;;;;;;;;;5037615;28;20091;-90
2023/09/19 03:56:48;;;;;;;12.50;2.85;;;;;;;;;;5014131;28;20042;-89
2023/09/19 03:59:14;;;;;;;12.50;2.60;;;;;;;;;;5023587;28;20053;-89
2023/09/19 04:01:41;;;;;;;13.65;2.90;;;;;;;;;;5029047;28;20068;-90
2023/09/19 04:04:11;;;;;;;12.88;2.65;;;;;;;;;;5021046;28;20852;-89
2023/09/19 04:06:37;;;;;;;10.60;2.50;;;;;;;;;;5027045;28;20579;-89
2023/09/19 04:09:04;;;;;;;14.98;3.10;;;;;;;;;;5012305;28;20045;-88
2023/09/19 04:11:33;;;;;;;10.50;2.50;;;;;;;;;;5024119;28;20088;-91
2023/09/19 04:13:59;;;;;;;11.43;2.78;;;;;;;;;;5010522;28;20045;-91
2023/09/19 04:16:26;;;;;;;10.13;2.10;;;;;;;;;;5007414;28;20080;-90
2023/09/19 04:18:52;;;;;;;12.40;2.97;;;;;;;;;;5012153;28;20067;-90
2023/09/19 04:21:19;;;;;;;11.70;2.72;;;;;;;;;;5015715;28;20037;-88
2023/09/19 04:23:45;;;;;;;12.40;3.00;;;;;;;;;;5027931;28;20044;-89
2023/09/19 04:26:12;;;;;;;9.27;2.53;;;;;;;;;;5023362;28;20053;-89
2023/09/19 04:28:38;;;;;;;11.25;2.60;;;;;;;;;;5011825;28;20036;-88
2023/09/19 04:31:05;;;;;;;14.85;2.53;;;;;;;;;;5028470;28;20053;-89
2023/09/19 04:33:31;;;;;;;12.43;2.95;;;;;;;;;;5020757;28;20076;-89
2023/09/19 04:35:57;;;;;;;10.63;2.50;;;;;;;;;;5025878;28;20057;-89
2023/09/19 04:38:23;;;;;;;12.68;2.10;;;;;;;;;;5011218;28;20099;-89
2023/09/19 04:40:49;;;;;;;18.50;3.10;;;;;;;;;;5016008;28;20461;-89
2023/09/19 04:43:15;;;;;;;15.25;3.40;;;;;;;;;;4999906;28;20092;-90
2023/09/19 04:45:41;;;;;;;12.90;2.72;;;;;;;;;;5006258;28;20079;-90
2023/09/19 04:48:08;;;;;;;14.25;3.15;;;;;;;;;;5022868;28;20057;-89
2023/09/19 04:50:34;;;;;;;12.57;2.80;;;;;;;;;;4995281;28;20053;-89
2023/09/19 04:53:00;;;;;;;13.65;2.70;;;;;;;;;;5006919;28;20459;-89
2023/09/19 04:55:27;;;;;;;12.75;2.75;;;;;;;;;;5018033;28;20068;-89
2023/09/19 04:57:53;;;;;;;14.38;3.00;;;;;;;;;;5026957;28;20041;-91
2023/09/19 05:00:22;;;;;;;12.43;3.10;;;;;;;;;;5004282;28;20053;-91
2023/09/19 05:02:50;;;;;;;11.55;3.05;;;;;;;;;;4997664;28;20077;-91
2023/09/19 05:05:16;;;;;;;;;;;;;;;;;;5009281;28;20053;-92
2023/09/19 05:07:46;;;;;;;14.02;3.22;;;;;;;;;;5040437;28;20022;-92
2023/09/19 05:10:12;;;;;;;15.07;3.45;;;;;;;;;;5015022;28;20081;-90
2023/09/19 05:12:38;;;;;;;10.68;3.13;;;;;;;;;;5022009;28;20050;-91
2023/09/19 05:15:06;;;;;;;11.13;3.00;;;;;;;;;;5015674;28;20033;-93
2023/09/19 05:17:33;;;;;;;10.68;3.03;;;;;;;;;;5034550;28;20105;-93
2023/09/19 05:20:06;;;;;;;13.43;3.38;;;;;;;;;;5018783;28;20041;-93
2023/09/19 05:22:35;;;;;;;14.65;3.40;;;;;;;;;;5004350;28;20797;-91
2023/09/19 05:25:04;;;;;;;13.68;3.53;;;;;;;;;;5009177;28;20172;-91
2023/09/19 05:27:31;;;;;;;15.25;3.13;;;;;;;;;;5005261;28;20107;-92
2023/09/19 05:29:57;;;;;;;12.60;3.28;;;;;;;;;;5026766;28;20108;-91
2023/09/19 05:32:23;;;;;;;15.23;3.35;;;;;;;;;;5004602;28;20046;-90
2023/09/19 05:34:52;;;;;;;14.80;3.42;;;;;;;;;;5000979;28;20512;-91
2023/09/19 05:37:18;;;;;;;12.88;3.47;;;;;;;;;;5022020;28;20060;-89
2023/09/19 05:39:44;;;;;;;12.40;3.40;;;;;;;;;;5018432;28;20090;-92
2023/09/19 05:42:11;;;;;;;14.60;3.83;;;;;;;;;;5019881;28;20053;-90
2023/09/19 05:44:36;;;;;;;15.05;3.65;;;;;;;;;;5019858;28;20049;-92
2023/09/19 05:47:03;;;;;;;16.10;3.50;;;;;;;;;;5011243;28;20100;-91
2023/09/19 05:49:29;;;;;;;18.80;3.42;;;;;;;;;;5010749;28;20048;-95
2023/09/19 05:51:57;;;;;;;12.77;3.70;;;;;;;;;;5030005;28;20060;-95
2023/09/19 05:54:23;;;;;;;16.90;3.58;;;;;;;;;;5023861;28;20041;-91
2023/09/19 05:56:53;;;;;;;19.35;4.30;;;;;;;;;;5023285;28;20037;-92
2023/09/19 05:59:19;;;;;;;16.73;3.58;;;;;;;;;;5048461;28;20049;-92
2023/09/19 06:01:46;;;;;;;14.60;3.28;;;;;;;;;;5033564;28;20036;-91
2023/09/19 06:04:13;;;;;;;15.85;3.50;;;;;;;;;;5025170;28;20041;-91
2023/09/19 06:06:39;;;;;;;16.77;3.28;;;;;;;;;;5013399;28;20044;-93
2023/09/19 06:09:08;;;;;;;12.05;3.42;;;;;;;;;;5022249;28;20050;-90
2023/09/19 06:11:34;;;;;;;15.50;3.25;;;;;;;;;;5015663;28;20120;-93
2023/09/19 06:14:02;;;;;;;12.50;3.08;;;;;;;;;;5036434;28;20041;-93
2023/09/19 06:16:29;;;;;;;19.02;3.58;;;;;;;;;;5028808;28;20123;-93
2023/09/19 06:18:55;;;;;;;18.52;3.63;;;;;;;;;;5036630;28;20105;-94
2023/09/19 06:21:22;;;;;;;17.55;3.67;;;;;;;;;;5025443;28;20062;-94
2023/09/19 06:23:48;;;;;;;15.95;3.42;;;;;;;;;;5010796;28;20056;-93
2023/09/19 06:26:14;;;;;;;14.18;3.20;;;;;;;;;;5008748;28;20500;-92
2023/09/19 06:28:40;;;;;;;15.52;3.63;;;;;;;;;;5024337;28;20052;-93
2023/09/19 06:31:09;;;;;;;17.30;3.92;;;;;;;;;;5020122;28;20472;-93
2023/09/19 06:33:38;;;;;;;17.27;3.78;;;;;;;;;;5034626;28;20115;-93
2023/09/19 06:36:04;;;;;;;19.52;3.85;;;;;;;;;;5041050;28;20463;-93
2023/09/19 06:38:32;;;;;;;14.90;3.35;;;;;;;;;;5016214;28;20084;-95
2023/09/19 06:40:59;;;;;;;23.17;3.67;;;;;;;;;;5036864;28;20068;-92
2023/09/19 06:43:24;;;;;;;16.92;3.67;;;;;;;;;;5026937;28;20080;-91
2023/09/19 06:45:54;;;;;;;12.85;3.30;;;;;;;;;;5020473;28;20485;-92
2023/09/19 06:48:21;;;;;;;12.07;2.83;;;;;;;;;;5031627;28;20049;-92
2023/09/19 06:50:48;;;;;;;14.90;3.33;;;;;;;;;;5035969;28;20306;-92
2023/09/19 06:53:14;;;;;;;16.65;3.45;;;;;;;;;;5024428;28;20056;-92
2023/09/19 06:55:40;;;;;;;12.02;3.17;;;;;;;;;;5017941;28;20072;-91
2023/09/19 06:58:06;;;;;;;14.32;3.10;;;;;;;;;;5019610;28;20057;-92
2023/09/19 07:00:36;;;;;;;14.50;3.17;;;;;;;;;;5015460;28;20045;-93
2023/09/19 07:03:03;;;;;;;16.40;3.55;;;;;;;;;;5042619;28;20284;-93
2023/09/19 07:05:31;;;;;;;17.40;3.38;;;;;;;;;;5015361;28;20045;-92
2023/09/19 07:08:03;;;;;;;18.02;3.65;;;;;;;;;;5044877;28;20838;-92
2023/09/19 07:10:30;;;;;;;14.48;3.20;;;;;;;;;;5032187;28;20057;-92
2023/09/19 07:12:57;;;;;;;11.20;3.40;;;;;;;;;;5017479;28;20041;-93
2023/09/19 07:15:24;;;;;;;13.45;2.97;;;;;;;;;;5018020;28;20088;-88
2023/09/19 07:17:50;;;;;;;14.27;3.00;;;;;;;;;;5026937;28;20076;-92
2023/09/19 07:20:16;;;;;;;12.27;2.90;;;;;;;;;;5033462;28;20055;-92
2023/09/19 07:22:42;;;;;;;12.40;2.70;;;;;;;;;;5033024;28;20041;-92
2023/09/19 07:25:08;;;;;;;21.55;3.33;;;;;;;;;;5014055;28;20037;-93
2023/09/19 07:27:34;;;;;;;11.38;2.85;;;;;;;;;;5001996;28;20045;-92
2023/09/19 07:30:00;;;;;;;10.82;2.90;;;;;;;;;;5030713;28;20543;-92
2023/09/19 07:32:26;;;;;;;14.88;3.30;;;;;;;;;;5031998;28;20049;-94
2023/09/19 07:34:54;;;;;;;14.57;3.10;;;;;;;;;;5052914;28;20044;-92
2023/09/19 07:37:21;;;;;;;11.10;2.88;;;;;;;;;;5022554;28;20057;-93
2023/09/19 07:39:47;;;;;;;13.73;3.33;;;;;;;;;;5030669;28;20105;-94
2023/09/19 07:42:17;;;;;;;14.60;3.20;;;;;;;;;;5010753;28;20148;-92
2023/09/19 07:44:46;;;;;;;15.82;3.13;;;;;;;;;;5022427;28;20045;-92
2023/09/19 07:47:12;;;;;;;13.90;2.88;;;;;;;;;;5032797;28;20067;-93
2023/09/19 07:49:39;;;;;;;14.63;3.20;;;;;;;;;;5025593;28;20049;-93
2023/09/19 07:52:05;;;;;;;15.25;3.05;;;;;;;;;;5029168;28;20050;-94
2023/09/19 07:54:35;;;;;;;14.65;3.28;;;;;;;;;;5026643;28;20084;-94
2023/09/19 07:57:01;;;;;;;16.98;3.45;;;;;;;;;;5029755;28;20049;-93
2023/09/19 07:59:27;;;;;;;14.10;3.13;;;;;;;;;;5014757;28;20049;-93
2023/09/19 08:01:53;;;;;;;12.77;3.30;;;;;;;;;;5017209;28;20124;-93
2023/09/19 08:04:20;;;;;;;13.23;2.88;;;;;;;;;;5005358;28;20045;-92
2023/09/19 08:06:46;;;;;;;16.25;3.17;;;;;;;;;;5030096;28;20037;-93
2023/09/19 08:09:14;;;;;;;12.30;2.95;;;;;;;;;;5031498;28;20041;-91
2023/09/19 08:11:40;;;;;;;14.23;3.10;;;;;;;;;;5023987;28;20063;-91
2023/09/19 08:14:08;;;;;;;16.15;3.08;;;;;;;;;;5016819;28;20053;-92
2023/09/19 08:16:34;;;;;;;15.55;2.85;;;;;;;;;;5008311;28;20037;-91
2023/09/19 08:19:00;;;;;;;11.50;2.70;;;;;;;;;;5024492;28;20552;-95
2023/09/19 08:21:29;;;;;;;13.35;3.20;;;;;;;;;;5029312;28;20132;-96
2023/09/19 08:23:55;;;;;;;15.55;2.88;;;;;;;;;;5025805;28;20051;-95
2023/09/19 08:26:21;;;;;;;16.15;3.13;;;;;;;;;;5015420;28;20033;-95
2023/09/19 08:28:47;;;;;;;19.88;3.33;;;;;;;;;;5032222;28;20087;-95
2023/09/19 08:31:13;;;;;;;11.13;2.80;;;;;;;;;;5039186;28;20412;-94
2023/09/19 08:33:40;;;;;;;10.95;3.00;;;;;;;;;;5011622;28;20034;-94
2023/09/19 08:36:08;;;;;;;11.57;2.75;;;;;;;;;;5066331;22;21149;-87
2023/09/19 08:38:35;;;;;;;14.30;3.65;;;;;;;;;;5015715;28;20063;-87
2023/09/19 08:41:01;;;;;;;12.95;2.92;;;;;;;;;;5040853;28;20040;-87
2023/09/19 08:43:28;;;;;;;15.88;3.60;;;;;;;;;;5022822;28;20049;-87
2023/09/19 08:45:59;;;;;;;14.60;3.13;;;;;;;;;;5034722;28;20071;-87
2023/09/19 08:48:28;;;;;;;18.25;3.25;;;;;;;;;;5040267;28;20087;-87
2023/09/19 08:51:16;;;;;;;13.57;3.40;;;;;;;;;;5022141;28;20064;-86
2023/09/19 08:53:48;;;;;;;14.63;3.17;;;;;;;;;;5019170;28;20049;-87
2023/09/19 08:56:17;;;;;;;14.98;3.47;;;;;;;;;;5022447;28;20488;-89
2023/09/19 08:58:54;;;;;;;16.77;3.50;;;;;;;;;;5042925;28;20122;-88
2023/09/19 09:01:24;;;;;;;17.08;3.70;;;;;;;;;;5069145;28;20194;-87
2023/09/19 09:04:09;;;;;;;16.35;4.18;;;;;;;;;;5034226;28;20124;-87
2023/09/19 09:06:36;;;;;;;13.65;3.60;;;;;;;;;;5039681;28;20045;-86
2023/09/19 09:09:03;;;;;;;17.48;4.03;;;;;;;;;;5037167;28;20431;-88
2023/09/19 09:11:29;;;;;;;16.52;3.75;;;;;;;;;;5067890;28;20052;-86
2023/09/19 09:13:56;;;;;;;14.38;3.70;;;;;;;;;;5023580;28;20041;-87
2023/09/19 09:16:22;;;;;;;16.70;3.92;;;;;;;;;;5035711;28;20044;-87
2023/09/19 09:18:52;;;;;;;17.30;3.45;;;;;;;;;;5035617;28;20036;-89
2023/09/19 09:21:18;;;;;;;17.38;4.45;;;;;;;;;;5020519;28;20066;-87
2023/09/19 09:23:45;;;;;;;13.93;3.53;;;;;;;;;;5043037;28;20072;-88
2023/09/19 09:26:11;;;;;;;16.42;3.72;;;;;;;;;;5017068;28;20128;-88
2023/09/19 09:28:44;;;;;;;19.75;3.20;;;;;;;;;;5011311;28;20128;-87
2023/09/19 09:31:22;;;;;;;17.02;3.38;;;;;;;;;;5022236;28;20163;-87
2023/09/19 09:34:13;;;;;;;13.45;3.45;;;;;;;;;;5033310;28;20043;-89
2023/09/19 09:36:41;;;;;;;17.52;3.33;;;;;;;;;;5003635;28;20055;-90
2023/09/19 09:39:15;;;;;;;13.38;3.08;;;;;;;;;;5021566;28;20344;-88
2023/09/19 09:41:42;;;;;;;15.48;3.35;;;;;;;;;;4997643;28;20533;-89
2023/09/19 09:44:18;;;;;;;14.85;2.85;;;;;;;;;;5018065;28;20052;-88
2023/09/19 09:49:33;;;;;;;17.63;3.50;;;;;;;;;;5030614;28;20096;-88
2023/09/19 09:52:16;;;;;;;19.98;4.07;;;;;;;;;;5015169;28;20059;-89
2023/09/19 09:58:18;;;;;;;15.05;3.65;;;;;;;;;;5034232;28;20396;-89
2023/09/19 10:01:02;;;;;;;17.17;3.67;;;;;;;;;;5018175;28;20044;-88
2023/09/19 10:03:47;;;;;;;18.23;3.88;;;;;;;;;;5034448;28;20045;-87
2023/09/19 10:06:35;;;;;;;15.60;3.47;;;;;;;;;;5005501;28;20045;-86
2023/09/19 10:11:39;;;;;;;12.30;3.55;;;;;;;;;;5039889;28;20045;-89
2023/09/19 10:14:09;;;;;;;12.55;3.03;;;;;;;;;;5014957;28;20171;-88
2023/09/19 10:16:39;;;;;;;18.73;3.50;;;;;;;;;;5005730;28;20049;-88
2023/09/19 10:19:06;;;;;;;13.80;2.97;;;;;;;;;;5005773;28;20033;-89
2023/09/19 10:22:01;;;;;;;15.15;3.47;;;;;;;;;;5017735;28;20048;-89
2023/09/19 10:24:28;;;;;;;15.93;3.00;;;;;;;;;;5005904;28;20103;-89
2023/09/19 10:26:55;;;;;;;12.73;2.92;;;;;;;;;;5007566;28;20055;-88
2023/09/19 10:29:43;;;;;;;14.60;3.45;;;;;;;;;;5008842;28;20053;-89
2023/09/19 10:32:10;;;;;;;14.73;3.50;;;;;;;;;;5023121;28;20064;-88
2023/09/19 10:34:36;;;;;;;14.73;3.03;;;;;;;;;;5020511;28;20583;-89
2023/09/19 10:37:05;;;;;;;13.38;3.42;;;;;;;;;;5017653;28;20049;-87
2023/09/19 10:39:33;;;;;;;15.68;3.67;;;;;;;;;;5019547;28;20045;-89
2023/09/19 10:42:11;;;;;;;13.32;3.08;;;;;;;;;;5035474;28;20050;-89
2023/09/19 10:44:43;;;;;;;17.23;2.92;;;;;;;;;;5011495;28;20052;-89
2023/09/19 10:47:13;;;;;;;12.77;3.00;;;;;;;;;;5036142;28;20060;-90
2023/09/19 10:49:49;;;;;;;13.98;3.22;;;;;;;;;;5021835;28;20094;-88
2023/09/19 10:52:19;;;;;;;17.73;3.33;;;;;;;;;;5032161;28;20033;-89
2023/09/19 10:54:52;;;;;;;16.63;3.50;;;;;;;;;;5032495;28;20439;-89
2023/09/19 10:57:23;;;;;;;18.13;3.30;;;;;;;;;;5031663;28;20037;-89
2023/09/19 11:00:27;;;;;;;16.55;3.33;;;;;;;;;;5019648;28;20059;-91
2023/09/19 11:03:11;;;;;;;12.30;2.95;;;;;;;;;;5033949;28;20037;-89
2023/09/19 11:08:52;;;;;;;17.45;3.38;;;;;;;;;;5033203;28;20315;-90
2023/09/19 11:11:39;;;;;;;11.75;2.80;;;;;;;;;;5026539;28;20140;-86
2023/09/19 11:14:26;;;;;;;13.45;3.38;;;;;;;;;;5016566;28;20041;-88
2023/09/19 11:23:28;;;;;;;13.85;2.90;;;;;;;;;;5037049;28;20125;-88
2023/09/19 11:25:57;;;;;;;12.10;3.00;;;;;;;;;;5032853;28;20199;-89
2023/09/19 11:28:25;;;;;;;12.98;3.00;;;;;;;;;;5017590;28;20063;-88
2023/09/19 11:30:55;;;;;;;14.93;3.10;;;;;;;;;;5036498;28;20472;-88
2023/09/19 11:33:28;;;;;;;9.93;2.40;;;;;;;;;;5017991;28;20435;-88
2023/09/19 11:36:19;;;;;;;11.98;2.97;;;;;;;;;;5034216;28;20469;-89
2023/09/19 11:39:22;;;;;;;15.15;3.08;;;;;;;;;;5018802;28;20060;-89
2023/09/19 11:41:56;;;;;;;12.13;2.80;;;;;;;;;;5032906;28;20056;-87
2023/09/19 11:44:44;;;;;;;11.73;3.20;;;;;;;;;;5033508;28;20041;-89
2023/09/19 11:47:43;;;;;;;11.25;2.80;;;;;;;;;;5015960;28;20060;-87
2023/09/19 11:50:11;;;;;;;15.38;3.08;;;;;;;;;;5030534;28;20049;-88
2023/09/19 11:52:38;;;;;;;14.88;2.58;;;;;;;;;;5011773;28;20049;-87
2023/09/19 11:55:32;;;;;;;16.33;3.25;;;;;;;;;;4957660;28;20050;-87
2023/09/19 11:57:59;;;;;;;17.48;3.22;;;;;;;;;;5030448;28;20594;-88
2023/09/19 12:00:36;;;;;;;10.73;2.45;;;;;;;;;;5017020;28;20041;-88
2023/09/19 12:03:06;;;;;;;11.37;3.07;;;;;;;;;;5035805;28;20390;-87
2023/09/19 12:05:38;;;;;;;18.83;3.00;;;;;;;;;;5015258;28;20652;-88
2023/09/19 12:08:08;;;;;;;16.10;3.28;;;;;;;;;;5014887;28;20041;-88
2023/09/19 12:10:44;;;;;;;13.43;2.85;;;;;;;;;;5014759;28;20057;-88
2023/09/19 12:13:12;;;;;;;12.55;3.08;;;;;;;;;;5015247;28;20040;-88
2023/09/19 12:15:40;;;;;;;13.75;3.15;;;;;;;;;;5015058;28;20180;-88
2023/09/19 12:18:11;;;;;;;16.35;3.42;;;;;;;;;;5033763;28;20423;-89
2023/09/19 12:20:57;;;;;;;16.80;2.78;;;;;;;;;;5031876;28;20495;-89
2023/09/19 12:26:44;;;;;;;13.32;3.45;;;;;;;;;;5031260;28;20457;-88
2023/09/19 12:29:20;;;;;;;13.88;3.03;;;;;;;;;;5016754;28;20107;-88
2023/09/19 12:31:53;;;;;;;15.20;2.83;;;;;;;;;;5031851;28;20072;-89
2023/09/19 12:34:26;;;;;;;11.82;2.83;;;;;;;;;;5034192;28;20072;-89
2023/09/19 12:37:14;;;;;;;12.73;2.60;;;;;;;;;;5031590;28;20049;-89
2023/09/19 12:39:41;;;;;;;13.60;3.20;;;;;;;;;;5016614;28;20471;-88
2023/09/19 12:45:18;;;;;;;13.70;2.83;;;;;;;;;;5012071;28;20790;-89
2023/09/19 12:48:16;;;;;;;16.52;3.25;;;;;;;;;;4999211;28;20267;-86
2023/09/19 12:51:05;;;;;;;12.63;2.55;;;;;;;;;;5013712;28;20048;-88
2023/09/19 12:53:33;;;;;;;7.57;2.42;;;;;;;;;;4998191;28;20389;-89
2023/09/19 12:55:59;;;;;;;;;;;;;;;;;;4997528;28;20048;-90
2023/09/19 12:58:25;;;;;;;11.68;2.30;;;;;;;;;;5016716;28;20339;-89
2023/09/19 13:00:55;;;;;;;11.45;2.50;;;;;;;;;;4993248;28;20052;-89
2023/09/19 13:03:40;;;;;;;;;;;;;;;;;;5005305;28;20041;-90
2023/09/19 13:06:07;;;;;;;10.93;2.42;;;;;;;;;;5022948;28;19921;-92
2023/09/19 13:08:38;;;;;;;13.13;2.50;;;;;;;;;;5004215;28;20111;-91
2023/09/19 13:11:09;;;;;;;8.68;2.20;;;;;;;;;;5016684;28;20041;-93
2023/09/19 13:13:36;;;;;;;13.18;2.70;;;;;;;;;;5001834;28;20087;-91
2023/09/19 13:16:04;;;;;;;8.18;1.98;;;;;;;;;;4998162;28;20045;-91
2023/09/19 13:18:31;;;;;;;13.23;2.50;;;;;;;;;;5016036;28;20057;-90
2023/09/19 13:21:12;;;;;;;10.00;2.22;;;;;;;;;;5015060;28;20067;-88
2023/09/19 13:23:38;;;;;;;10.05;2.25;;;;;;;;;;5017195;28;20049;-88
2023/09/19 13:26:07;;;;;;;10.90;2.25;;;;;;;;;;5039869;28;20060;-87
2023/09/19 13:28:34;;;;;;;12.43;2.20;;;;;;;;;;5026709;28;20064;-88
2023/09/19 13:31:00;;;;;;;11.88;2.50;;;;;;;;;;5016236;28;20516;-88
2023/09/19 13:33:26;;;;;;;10.52;2.03;;;;;;;;;;5040761;28;20071;-87
2023/09/19 13:35:52;;;;;;;9.82;1.85;;;;;;;;;;5023570;28;20065;-91
2023/09/19 13:38:48;;;;;;;10.90;2.08;;;;;;;;;;5024010;28;20051;-89
2023/09/19 13:41:17;;;;;;;9.35;2.08;;;;;;;;;;5019789;28;20060;-85
2023/09/19 13:43:48;;;;;;;12.65;2.03;;;;;;;;;;5038683;28;20044;-84
2023/09/19 13:46:15;;;;;;;9.38;1.83;;;;;;;;;;5022804;28;20048;-85
2023/09/19 13:48:41;;;;;;;9.77;1.63;;;;;;;;;;5020725;28;20123;-86
2023/09/19 13:51:08;;;;;;;12.05;2.15;;;;;;;;;;5037714;28;20132;-84
2023/09/19 14:23:14;;;;;;;12.10;2.70;;;;;;;;;;5022670;23;20044;-90
2023/09/19 14:53:56;;;;;;;;;;;;;;;;;;;;;
2023/09/19 15:00:11;;;;;;;6.72;1.73;;;;;;;;;;4928258;29;20139;-94
2023/09/19 15:28:23;;;;;;;4.57;1.75;;;;;;;;;;4907154;29;20047;-87
2023/09/19 15:36:54;;;;;;;6.20;1.70;;;;;;;;;;5056247;23;20071;-93
2023/09/19 15:39:22;;;;;;;10.85;1.80;;;;;;;;;;4940085;28;20121;-94
2023/09/19 15:41:54;;;;;;;7.38;1.40;;;;;;;;;;4950875;28;20047;-96
2023/09/19 15:44:26;;;;;;;7.00;1.48;;;;;;;;;;4991488;23;20067;-95
2023/09/19 15:58:06;;;;;;;3.50;1.52;;;;;;;;;;4865244;28;20044;-87
2023/09/19 16:00:34;;;;;;;5.85;1.50;;;;;;;;;;4955829;28;20459;-84
2023/09/19 16:03:00;;;;;;;6.55;1.55;;;;;;;;;;4925719;28;20058;-86
2023/09/19 16:05:39;;;;;;;5.57;1.60;;;;;;;;;;4955240;28;20055;-86
2023/09/19 16:08:08;;;;;;;7.32;1.65;;;;;;;;;;4941571;28;20525;-88
2023/09/19 16:10:37;;;;;;;9.10;1.77;;;;;;;;;;4956964;28;20149;-85
2023/09/19 16:13:04;;;;;;;6.72;1.70;;;;;;;;;;4953560;28;20059;-86
2023/09/19 16:15:30;;;;;;;8.25;1.50;;;;;;;;;;4937173;28;20066;-84
2023/09/19 16:17:56;;;;;;;6.90;1.42;;;;;;;;;;4932517;28;20488;-85
2023/09/19 16:20:23;;;;;;;7.10;1.40;;;;;;;;;;4924700;28;20055;-84
2023/09/19 16:22:49;;;;;;;6.70;1.52;;;;;;;;;;4958140;28;20121;-85
2023/09/19 16:25:16;;;;;;;6.30;1.75;;;;;;;;;;4950503;28;20071;-93
2023/09/19 16:27:42;;;;;;;8.32;2.10;;;;;;;;;;4954490;28;20141;-85
2023/09/19 16:30:09;;;;;;;6.55;1.70;;;;;;;;;;4938109;28;20388;-88
2023/09/19 16:32:36;;;;;;;7.25;2.22;;;;;;;;;;4938850;28;20065;-86
2023/09/19 16:35:02;;;;;;;5.97;1.75;;;;;;;;;;4924493;28;20537;-85
2023/09/19 16:37:28;;;;;;;8.50;2.08;;;;;;;;;;4958282;28;20043;-89
2023/09/19 16:39:54;;;;;;;6.88;1.88;;;;;;;;;;4958937;28;20043;-90
2023/09/19 16:42:21;;;;;;;6.65;2.15;;;;;;;;;;4958941;28;20086;-86
2023/09/19 16:44:47;;;;;;;6.53;2.25;;;;;;;;;;4938385;28;20053;-86
2023/09/19 16:47:13;;;;;;;6.30;2.30;;;;;;;;;;4939911;28;20046;-84
2023/09/19 16:49:39;;;;;;;8.80;2.53;;;;;;;;;;4936305;28;20042;-85
2023/09/19 16:52:05;;;;;;;8.48;2.30;;;;;;;;;;4922060;28;20074;-86
2023/09/19 16:54:31;;;;;;;5.68;2.08;;;;;;;;;;4922678;29;20051;-85
2023/09/19 16:56:57;;;;;;;7.50;2.40;;;;;;;;;;4927558;29;20075;-84